Time;durP1;ratioP1;P1;durP2;ratioP2;P2;SDS_P1;SDS_P2;PMS_P1;PMS_P2;Temp;Humidity;BMP_temperature;BMP_pressure;BME280_temperature;BME280_humidity;BME280_pressure;Samples;Min_cycle;Max_cycle;Signal;HPM_P1;HPM_P2
2023/10/04 00:03:13;;;;;;;5.68;1.55;;;16.90;99.90;;;;;;5947864;23;45256;-56
2023/10/04 00:19:32;;;;;;;4.78;1.67;;;16.60;99.90;;;;;;5638643;22;9858891;-56
2023/10/04 00:22:02;;;;;;;8.35;1.80;;;17.00;99.90;;;;;;6008573;22;47643;-56
2023/10/04 00:24:31;;;;;;;9.82;2.03;;;16.70;99.90;;;;;;6002770;22;44870;-55
2023/10/04 00:27:05;;;;;;;6.72;1.65;;;16.70;99.90;;;;;;6021711;22;45424;-56
2023/10/04 00:29:50;;;;;;;5.93;1.63;;;16.90;99.90;;;;;;6007440;22;45229;-56
2023/10/04 00:32:21;;;;;;;11.25;1.77;;;16.60;99.90;;;;;;6081810;22;45733;-55
2023/10/04 00:35:25;;;;;;;4.00;1.30;;;16.10;99.90;;;;;;6100464;22;45198;-55
2023/10/04 00:38:14;;;;;;;6.85;1.80;;;16.50;99.90;;;;;;5995876;22;45398;-56
2023/10/04 00:40:43;;;;;;;9.20;1.80;;;16.40;99.90;;;;;;6003764;22;45107;-55
2023/10/04 00:43:31;;;;;;;4.68;1.75;;;16.60;99.90;;;;;;5999738;22;45594;-56
2023/10/04 00:45:58;;;;;;;8.85;1.52;;;16.80;99.90;;;;;;6020217;22;45091;-56
2023/10/04 00:48:31;;;;;;;7.65;1.60;;;16.80;99.90;;;;;;6032370;22;45239;-56
2023/10/04 00:51:23;;;;;;;5.00;1.60;;;16.60;99.90;;;;;;6019623;22;45227;-56
2023/10/04 00:54:27;;;;;;;6.70;1.40;;;16.90;99.90;;;;;;6009635;22;46519;-56
2023/10/04 00:57:13;;;;;;;6.70;1.70;;;16.80;99.90;;;;;;5998160;22;44980;-56
2023/10/04 01:00:14;;;;;;;9.00;1.60;;;16.70;99.90;;;;;;6017448;22;45150;-56
2023/10/04 01:02:53;;;;;;;11.15;1.85;;;16.70;99.90;;;;;;6018401;22;45362;-55
2023/10/04 01:05:51;;;;;;;7.93;1.63;;;15.80;99.90;;;;;;6003865;22;46338;-55
2023/10/04 01:08:22;;;;;;;8.40;1.75;;;16.10;99.90;;;;;;6022737;22;45126;-56
2023/10/04 01:11:00;;;;;;;6.47;1.70;;;16.50;99.90;;;;;;6023448;22;45300;-56
2023/10/04 01:13:43;;;;;;;4.65;1.85;;;16.80;99.90;;;;;;6051825;22;44917;-55
2023/10/04 01:16:45;;;;;;;7.00;1.45;;;16.90;99.90;;;;;;6048099;22;46138;-56
2023/10/04 01:19:34;;;;;;;10.43;2.65;;;17.00;99.90;;;;;;6019849;22;44884;-56
2023/10/04 01:22:31;;;;;;;8.60;1.70;;;17.10;99.90;;;;;;6026318;22;45185;-56
2023/10/04 01:25:19;;;;;;;7.60;1.98;;;16.40;99.90;;;;;;6009794;22;45043;-56
2023/10/04 01:27:51;;;;;;;6.93;2.03;;;16.50;99.90;;;;;;6039235;22;45284;-56
2023/10/04 01:30:18;;;;;;;7.57;1.70;;;16.40;99.90;;;;;;6002552;22;45411;-56
2023/10/04 01:32:47;;;;;;;5.95;1.63;;;16.50;99.90;;;;;;6010509;22;45514;-56
2023/10/04 01:35:29;;;;;;;6.15;1.88;;;16.30;99.90;;;;;;6060392;22;45248;-56
2023/10/04 01:38:17;;;;;;;8.88;1.65;;;15.60;99.90;;;;;;6028200;22;47510;-56
2023/10/04 01:41:16;;;;;;;10.48;2.13;;;15.50;99.90;;;;;;6017671;22;45634;-56
2023/10/04 01:44:16;;;;;;;11.07;1.73;;;16.00;99.90;;;;;;6012405;22;45067;-56
2023/10/04 01:46:47;;;;;;;4.50;1.50;;;15.80;99.90;;;;;;6020378;22;45291;-56
2023/10/04 01:49:49;;;;;;;7.28;1.80;;;16.20;99.90;;;;;;6026344;22;46656;-56
2023/10/04 01:52:33;;;;;;;9.18;1.60;;;16.40;99.90;;;;;;6016063;22;45073;-56
2023/10/04 01:55:35;;;;;;;6.72;1.70;;;16.60;99.90;;;;;;6031876;22;45202;-56
2023/10/04 01:58:21;;;;;;;7.47;1.55;;;16.30;99.90;;;;;;6028384;22;45120;-55
2023/10/04 02:00:48;;;;;;;5.05;1.45;;;16.30;99.90;;;;;;6015901;22;46548;-56
2023/10/04 02:03:38;;;;;;;12.00;1.92;;;16.20;99.90;;;;;;6015886;22;45382;-56
2023/10/04 02:06:22;;;;;;;10.48;1.70;;;16.20;99.90;;;;;;6032468;22;45125;-56
2023/10/04 02:08:49;;;;;;;7.82;1.70;;;16.40;99.90;;;;;;6018698;22;45457;-56
2023/10/04 02:14:53;;;;;;;7.45;1.48;;;16.10;99.90;;;;;;5998017;22;45037;-56
2023/10/04 02:17:40;;;;;;;6.75;1.45;;;16.20;99.90;;;;;;5992252;22;45126;-56
2023/10/04 02:23:12;;;;;;;10.02;1.40;;;16.00;99.90;;;;;;5987550;22;45610;-56
2023/10/04 02:25:58;;;;;;;9.90;1.48;;;16.00;99.90;;;;;;6006481;22;45114;-56
2023/10/04 02:28:36;;;;;;;8.88;1.30;;;16.30;99.90;;;;;;6000713;22;45144;-56
2023/10/04 02:31:06;;;;;;;6.95;1.67;;;16.50;99.90;;;;;;6006575;22;45134;-56
2023/10/04 02:33:34;;;;;;;7.90;1.70;;;16.90;99.90;;;;;;6003536;22;45721;-56
2023/10/04 02:36:16;;;;;;;9.30;1.40;;;16.60;99.90;;;;;;6023143;22;45275;-56
2023/10/04 02:39:11;;;;;;;9.68;1.40;;;16.20;99.90;;;;;;5997687;22;45264;-56
2023/10/04 02:42:09;;;;;;;8.93;1.80;;;16.60;99.90;;;;;;6035552;22;45191;-56
2023/10/04 02:44:41;;;;;;;7.10;1.88;;;16.90;99.90;;;;;;5991264;22;45390;-56
2023/10/04 02:47:28;;;;;;;9.20;1.73;;;16.50;99.90;;;;;;6011736;22;45044;-56
2023/10/04 02:49:56;;;;;;;10.43;1.65;;;16.30;99.90;;;;;;5992474;22;45198;-56
2023/10/04 02:52:23;;;;;;;5.85;1.63;;;16.00;99.90;;;;;;6005165;22;45651;-56
2023/10/04 02:54:50;;;;;;;8.15;1.52;;;16.20;99.90;;;;;;6000925;22;45969;-56
2023/10/04 02:57:34;;;;;;;10.18;2.10;;;16.20;99.90;;;;;;6032268;22;45340;-56
2023/10/04 03:06:48;;;;;;;11.32;1.80;;;16.50;99.90;;;;;;5981076;22;45071;-56
2023/10/04 03:09:15;;;;;;;5.57;1.55;;;17.10;99.90;;;;;;6005984;22;45248;-56
2023/10/04 03:12:03;;;;;;;6.47;1.40;;;17.10;99.90;;;;;;6001628;22;45117;-56
2023/10/04 03:14:45;;;;;;;7.95;1.48;;;17.40;99.90;;;;;;5993425;22;45413;-56
2023/10/04 03:17:39;;;;;;;11.27;1.98;;;17.50;99.90;;;;;;5990837;22;45666;-56
2023/10/04 03:20:20;;;;;;;5.20;1.42;;;17.40;99.90;;;;;;6008551;22;45084;-56
2023/10/04 03:23:18;;;;;;;4.90;1.10;;;17.60;99.90;;;;;;5999604;22;45349;-56
2023/10/04 03:29:01;;;;;;;11.10;2.20;;;17.20;99.90;;;;;;5991925;22;45827;-56
2023/10/04 03:31:28;;;;;;;5.88;1.50;;;17.00;99.90;;;;;;6003249;22;45247;-56
2023/10/04 03:33:59;;;;;;;7.72;1.38;;;17.20;99.90;;;;;;6007623;22;45233;-56
2023/10/04 03:36:51;;;;;;;9.23;1.38;;;16.80;99.90;;;;;;6015957;22;45372;-56
2023/10/04 03:39:36;;;;;;;8.25;1.90;;;16.80;99.90;;;;;;6011518;22;45416;-56
2023/10/04 03:42:03;;;;;;;14.52;1.60;;;16.40;99.90;;;;;;6006471;22;45288;-56
2023/10/04 03:45:00;;;;;;;8.10;1.83;;;16.40;99.90;;;;;;6019473;22;45413;-56
2023/10/04 03:47:27;;;;;;;9.82;2.22;;;16.00;99.90;;;;;;6015924;22;45131;-56
2023/10/04 03:49:56;;;;;;;7.63;1.65;;;16.60;99.90;;;;;;6007551;22;45420;-56
2023/10/04 03:52:27;;;;;;;8.65;1.88;;;16.40;99.90;;;;;;5993021;22;45231;-55
2023/10/04 03:58:37;;;;;;;4.72;1.83;;;16.10;99.90;;;;;;5949629;22;45362;-56
2023/10/04 04:01:37;;;;;;;12.82;1.88;;;16.50;99.90;;;;;;6010339;22;47009;-56
2023/10/04 04:04:04;;;;;;;10.65;2.03;;;16.90;99.90;;;;;;6006350;22;45208;-56
2023/10/04 04:07:03;;;;;;;5.32;2.00;;;17.00;99.90;;;;;;6002847;22;44854;-56
2023/10/04 04:09:33;;;;;;;8.80;1.60;;;16.70;99.90;;;;;;6013499;22;45299;-56
2023/10/04 04:12:21;;;;;;;5.80;1.45;;;16.80;99.90;;;;;;5996183;22;46728;-56
2023/10/04 04:14:54;;;;;;;8.43;2.00;;;16.70;99.90;;;;;;6015628;22;45106;-56
2023/10/04 04:17:23;;;;;;;5.68;1.40;;;16.80;99.90;;;;;;5998505;22;45124;-56
2023/10/04 04:20:07;;;;;;;9.52;1.42;;;16.80;99.90;;;;;;6027391;22;45059;-56
2023/10/04 04:22:39;;;;;;;6.72;1.40;;;16.70;99.90;;;;;;5997747;22;47959;-56
2023/10/04 04:25:20;;;;;;;9.00;1.75;;;17.40;99.90;;;;;;6012111;22;45200;-56
2023/10/04 04:27:50;;;;;;;7.70;1.77;;;17.20;99.90;;;;;;5998392;22;45332;-56
2023/10/04 04:30:53;;;;;;;10.82;1.73;;;16.50;99.90;;;;;;5996087;22;45336;-56
2023/10/04 04:33:26;;;;;;;9.23;1.80;;;16.50;99.90;;;;;;6006084;22;47198;-56
2023/10/04 04:36:00;;;;;;;11.63;1.83;;;16.30;99.90;;;;;;6016180;22;45260;-56
2023/10/04 04:38:38;;;;;;;9.02;1.85;;;16.60;99.90;;;;;;6010591;22;45070;-56
2023/10/04 04:41:25;;;;;;;10.95;2.08;;;15.70;99.90;;;;;;6003526;22;45169;-56
2023/10/04 04:43:54;;;;;;;9.77;1.60;;;16.00;99.90;;;;;;6008344;22;45341;-56
2023/10/04 04:46:47;;;;;;;7.15;1.52;;;16.20;99.90;;;;;;6001403;22;44751;-56
2023/10/04 04:49:15;;;;;;;9.25;2.03;;;16.60;99.90;;;;;;6010639;22;45519;-56
2023/10/04 04:51:42;;;;;;;11.10;2.08;;;16.80;99.90;;;;;;5996756;22;45077;-56
2023/10/04 04:54:12;;;;;;;12.65;1.75;;;16.60;99.90;;;;;;6012856;22;45786;-56
2023/10/04 04:56:53;;;;;;;10.55;1.98;;;16.60;99.90;;;;;;6004985;22;45372;-56
2023/10/04 04:59:42;;;;;;;8.82;1.80;;;16.90;99.90;;;;;;6024063;22;45240;-56
2023/10/04 05:02:19;;;;;;;8.10;1.42;;;17.10;99.90;;;;;;5999359;22;45295;-56
2023/10/04 05:04:47;;;;;;;7.60;1.77;;;17.30;99.90;;;;;;5997267;22;47375;-55
2023/10/04 05:07:17;;;;;;;6.65;1.27;;;17.10;99.90;;;;;;5987585;22;45537;-56
2023/10/04 05:09:55;;;;;;;9.55;1.73;;;17.50;99.90;;;;;;6008027;22;45028;-55
2023/10/04 05:12:41;;;;;;;5.85;1.58;;;17.60;99.90;;;;;;6025893;22;45326;-55
2023/10/04 05:29:07;;;;;;;6.65;1.30;;;17.60;99.90;;;;;;6165924;22;1464619;-55
2023/10/04 05:31:43;;;;;;;4.38;1.40;;;19.10;99.90;;;;;;6044738;22;45093;-56
2023/10/04 05:34:10;;;;;;;7.22;1.83;;;19.20;99.90;;;;;;6037131;22;45113;-56
2023/10/04 05:36:53;;;;;;;10.27;1.30;;;19.20;99.90;;;;;;6032145;22;45091;-55
2023/10/04 05:39:20;;;;;;;5.63;1.42;;;19.20;99.90;;;;;;6038575;22;45168;-56
2023/10/04 05:41:57;;;;;;;4.13;1.40;;;19.20;99.90;;;;;;6045582;22;45233;-56
2023/10/04 05:45:01;;;;;;;5.22;1.38;;;19.30;99.90;;;;;;6049070;22;45150;-55
2023/10/04 05:47:29;;;;;;;4.75;1.58;;;19.30;99.90;;;;;;6042727;22;45208;-56
2023/10/04 05:49:58;;;;;;;6.97;1.95;;;19.40;99.90;;;;;;6046076;22;46955;-56
2023/10/04 05:52:40;;;;;;;4.75;1.58;;;19.40;99.90;;;;;;6021738;22;45174;-56
2023/10/04 05:58:34;;;;;;;6.82;1.50;;;19.40;99.90;;;;;;5988684;22;45121;-55
2023/10/04 06:01:17;;;;;;;5.20;1.67;;;19.50;99.90;;;;;;6035801;22;47374;-56
2023/10/04 06:03:44;;;;;;;4.45;1.48;;;19.50;99.90;;;;;;6060931;22;45349;-56
2023/10/04 06:06:25;;;;;;;6.82;1.33;;;19.50;99.90;;;;;;6020743;22;45158;-56
2023/10/04 06:08:56;;;;;;;6.60;1.38;;;19.50;99.90;;;;;;6022035;22;45190;-56
2023/10/04 06:15:13;;;;;;;5.40;1.48;;;18.50;99.90;;;;;;5987139;22;45459;-55
2023/10/04 06:17:44;;;;;;;5.43;1.67;;;19.10;99.90;;;;;;6033044;22;45181;-56
2023/10/04 06:20:36;;;;;;;4.03;1.40;;;19.40;99.90;;;;;;6030858;22;45121;-55
2023/10/04 06:23:24;;;;;;;6.97;1.70;;;19.40;99.90;;;;;;6035352;22;47620;-55
2023/10/04 06:26:09;;;;;;;4.60;1.77;;;19.50;99.90;;;;;;6025522;22;45239;-55
2023/10/04 06:28:55;;;;;;;6.63;1.80;;;19.50;99.90;;;;;;6049726;22;45583;-55
2023/10/04 06:31:35;;;;;;;7.15;1.70;;;19.60;99.10;;;;;;6022663;22;45124;-55
2023/10/04 06:34:36;;;;;;;5.55;1.60;;;19.70;99.40;;;;;;6016809;22;46970;-56
2023/10/04 06:37:04;;;;;;;8.35;2.03;;;19.80;98.60;;;;;;6024968;22;45139;-55
2023/10/04 06:39:31;;;;;;;6.50;1.83;;;19.80;97.70;;;;;;6023539;22;44854;-54
2023/10/04 06:42:16;;;;;;;12.75;2.45;;;19.80;98.50;;;;;;6032175;22;45215;-55
2023/10/04 06:45:01;;;;;;;9.43;2.42;;;19.50;95.60;;;;;;6059929;22;45902;-56
2023/10/04 06:47:55;;;;;;;11.65;2.42;;;17.90;99.90;;;;;;6058647;22;45052;-56
2023/10/04 06:50:28;;;;;;;14.38;2.40;;;17.10;99.90;;;;;;6056033;22;45203;-55
2023/10/04 06:53:18;;;;;;;11.77;2.20;;;17.30;99.90;;;;;;6051349;22;45118;-56
2023/10/04 06:56:24;;;;;;;9.35;2.42;;;17.20;99.90;;;;;;6072026;22;46466;-56
2023/10/04 06:59:22;;;;;;;9.48;1.90;;;16.70;99.90;;;;;;6068812;22;45126;-56
2023/10/04 07:02:13;;;;;;;8.45;1.92;;;16.50;99.90;;;;;;6032888;22;45373;-56
2023/10/04 07:04:40;;;;;;;11.25;2.65;;;15.80;99.90;;;;;;6018262;22;45259;-56
2023/10/04 07:07:09;;;;;;;13.13;2.40;;;15.60;99.90;;;;;;6039248;22;46054;-56
2023/10/04 07:09:57;;;;;;;10.25;2.30;;;15.50;99.90;;;;;;6030700;22;45181;-56
2023/10/04 07:12:26;;;;;;;8.85;2.35;;;15.60;99.90;;;;;;6023005;22;45147;-56
2023/10/04 07:15:20;;;;;;;14.27;2.20;;;15.30;99.90;;;;;;6024061;22;45498;-56
2023/10/04 07:18:10;;;;;;;10.20;1.92;;;15.60;99.90;;;;;;6035589;22;46101;-56
2023/10/04 07:20:57;;;;;;;10.27;2.25;;;15.40;99.90;;;;;;6049432;22;45450;-56
2023/10/04 07:23:40;;;;;;;9.23;2.22;;;15.30;99.90;;;;;;6039707;22;45019;-56
2023/10/04 07:26:21;;;;;;;15.05;2.15;;;15.10;99.90;;;;;;6020056;22;44995;-56
2023/10/04 07:29:29;;;;;;;13.45;2.35;;;15.40;99.90;;;;;;6046404;22;45466;-56
2023/10/04 07:32:30;;;;;;;10.23;1.90;;;16.00;99.90;;;;;;6043139;22;45150;-56
2023/10/04 07:35:21;;;;;;;11.52;2.03;;;16.00;99.90;;;;;;6020697;22;45309;-56
2023/10/04 07:38:17;;;;;;;8.05;2.20;;;15.80;99.90;;;;;;6038244;22;45238;-56
2023/10/04 07:40:57;;;;;;;9.20;1.98;;;16.30;99.90;;;;;;6014787;22;45727;-56
2023/10/04 07:43:46;;;;;;;10.60;2.33;;;16.20;99.90;;;;;;6051415;22;45058;-56
2023/10/04 07:46:35;;;;;;;13.30;2.80;;;15.70;99.90;;;;;;6030316;22;45164;-56
2023/10/04 07:49:25;;;;;;;12.15;2.58;;;15.30;99.90;;;;;;6048627;22;45284;-56
2023/10/04 07:51:52;;;;;;;15.38;2.03;;;15.10;99.90;;;;;;6015608;22;46528;-56
2023/10/04 08:01:53;;;;;;;12.80;2.20;;;16.20;99.90;;;;;;6017764;22;45217;-56
2023/10/04 08:04:21;;;;;;;14.27;2.28;;;15.50;99.90;;;;;;6031077;22;47216;-56
2023/10/04 08:06:52;;;;;;;15.13;2.97;;;16.10;99.90;;;;;;6027946;22;45167;-56
2023/10/04 08:09:32;;;;;;;7.93;1.73;;;16.00;99.90;;;;;;6014762;22;45413;-56
2023/10/04 08:12:19;;;;;;;10.80;2.53;;;16.00;99.90;;;;;;6039325;22;45431;-56
2023/10/04 08:15:02;;;;;;;6.72;1.70;;;16.70;99.90;;;;;;6025250;22;45334;-56
2023/10/04 08:17:36;;;;;;;12.73;2.85;;;16.80;99.90;;;;;;6034564;22;45458;-56
2023/10/04 08:20:06;;;;;;;15.32;2.15;;;16.90;99.90;;;;;;6028403;22;45271;-56
2023/10/04 08:22:33;;;;;;;8.00;2.25;;;17.00;99.90;;;;;;6034159;22;45007;-56
2023/10/04 08:25:32;;;;;;;7.90;2.10;;;16.90;99.90;;;;;;6016090;22;46091;-56
2023/10/04 08:28:25;;;;;;;10.82;2.17;;;17.40;99.90;;;;;;6032161;22;45065;-56
2023/10/04 08:30:52;;;;;;;14.63;2.75;;;17.50;99.90;;;;;;6025537;22;45225;-56
2023/10/04 08:33:37;;;;;;;10.43;2.28;;;17.70;99.90;;;;;;6029488;22;44876;-56
2023/10/04 08:36:39;;;;;;;15.20;2.60;;;17.30;99.90;;;;;;6043395;22;46256;-56
2023/10/04 08:40:10;;;;;;;10.20;2.30;;;16.80;99.90;;;;;;6037257;22;45247;-56
2023/10/04 08:42:50;;;;;;;9.68;2.40;;;16.60;99.90;;;;;;6028356;22;45223;-56
2023/10/04 08:45:34;;;;;;;8.70;2.10;;;16.90;99.90;;;;;;6013375;22;45194;-56
2023/10/04 08:48:29;;;;;;;12.82;1.90;;;16.70;99.90;;;;;;6030155;22;45770;-56
2023/10/04 08:51:16;;;;;;;13.43;2.30;;;16.40;99.90;;;;;;6029346;22;45270;-56
2023/10/04 08:54:14;;;;;;;11.65;2.60;;;16.40;99.90;;;;;;6032928;22;45310;-56
2023/10/04 08:59:39;;;;;;;14.85;2.30;;;16.30;99.90;;;;;;6006328;22;45246;-56
2023/10/04 09:02:28;;;;;;;7.63;2.00;;;16.50;99.90;;;;;;6031664;22;45036;-56
2023/10/04 09:04:55;;;;;;;13.02;2.58;;;16.90;99.90;;;;;;6040278;22;44899;-56
2023/10/04 09:07:24;;;;;;;14.40;3.15;;;16.70;99.90;;;;;;6027846;22;45378;-56
2023/10/04 09:10:15;;;;;;;12.52;2.60;;;16.50;99.90;;;;;;6039438;22;47457;-56
2023/10/04 09:12:42;;;;;;;11.82;2.30;;;17.00;99.90;;;;;;6028812;22;45174;-56
2023/10/04 09:18:51;;;;;;;14.63;2.85;;;16.40;99.90;;;;;;6061356;22;45530;-56
2023/10/04 09:21:19;;;;;;;15.15;2.40;;;16.40;99.90;;;;;;6027035;22;46633;-56
2023/10/04 09:26:54;;;;;;;12.75;2.22;;;17.20;99.90;;;;;;5997332;22;45263;-56
2023/10/04 09:29:38;;;;;;;13.35;2.75;;;17.00;99.90;;;;;;6031386;22;44813;-56
2023/10/04 09:35:18;;;;;;;9.95;2.40;;;17.00;99.90;;;;;;6006425;22;45219;-56
2023/10/04 09:38:20;;;;;;;11.68;2.10;;;16.90;99.90;;;;;;6034605;22;45585;-56
2023/10/04 09:41:19;;;;;;;15.35;2.58;;;17.20;99.90;;;;;;6036167;22;44828;-56
2023/10/04 09:43:47;;;;;;;13.15;3.00;;;17.10;99.90;;;;;;6028911;22;46340;-56
2023/10/04 09:46:48;;;;;;;13.63;3.13;;;17.20;99.90;;;;;;6026514;22;45306;-56
2023/10/04 09:52:43;;;;;;;14.57;2.75;;;16.60;99.90;;;;;;5998205;22;45308;-56
2023/10/04 09:55:13;;;;;;;15.45;2.60;;;16.90;99.90;;;;;;6008744;22;46376;-56
2023/10/04 09:58:00;;;;;;;9.98;2.40;;;17.30;99.90;;;;;;6026812;22;45077;-56
2023/10/04 10:00:29;;;;;;;10.07;3.13;;;17.80;99.90;;;;;;6020264;22;45228;-56
2023/10/04 10:03:12;;;;;;;9.20;2.40;;;17.80;99.90;;;;;;6040165;22;45363;-56
2023/10/04 10:05:57;;;;;;;9.20;1.98;;;17.80;99.90;;;;;;6030085;22;46411;-56
2023/10/04 10:11:52;;;;;;;5.72;1.90;;;17.60;99.90;;;;;;6003015;22;45242;-56
2023/10/04 10:14:34;;;;;;;8.73;2.13;;;17.60;99.90;;;;;;6026893;22;45031;-56
2023/10/04 10:17:12;;;;;;;8.05;2.13;;;18.00;99.90;;;;;;6026647;22;47472;-56
2023/10/04 10:23:10;;;;;;;11.45;2.50;;;17.80;99.90;;;;;;6003556;22;45108;-56
2023/10/04 10:26:14;;;;;;;7.80;1.98;;;18.00;99.90;;;;;;6031211;22;45065;-56
2023/10/04 10:28:41;;;;;;;7.68;2.13;;;18.00;99.90;;;;;;6027511;22;46062;-56
2023/10/04 10:31:32;;;;;;;11.55;2.20;;;18.10;99.90;;;;;;6030362;22;45169;-56
2023/10/04 10:34:17;;;;;;;9.68;2.58;;;18.20;99.90;;;;;;6014398;22;45327;-56
2023/10/04 10:36:44;;;;;;;8.18;2.17;;;17.80;99.90;;;;;;6022151;22;45378;-56
2023/10/04 10:39:24;;;;;;;11.40;2.40;;;17.70;99.90;;;;;;6044047;22;45647;-56
2023/10/04 10:41:57;;;;;;;12.38;2.60;;;18.00;99.90;;;;;;6037033;22;45209;-56
2023/10/04 10:44:30;;;;;;;15.43;3.15;;;17.90;99.90;;;;;;6014305;22;45165;-56
2023/10/04 10:50:38;;;;;;;8.23;2.38;;;17.90;99.90;;;;;;5993422;22;45313;-56
2023/10/04 10:53:06;;;;;;;12.75;3.10;;;17.60;99.90;;;;;;6026010;22;45343;-56
2023/10/04 10:55:34;;;;;;;11.30;2.10;;;17.70;99.90;;;;;;6037020;22;45217;-56
2023/10/04 10:58:00;;;;;;;9.20;2.97;;;17.70;99.90;;;;;;6018774;22;45617;-56
2023/10/04 11:00:32;;;;;;;9.00;2.15;;;17.80;99.90;;;;;;6037510;22;46062;-56
2023/10/04 11:03:28;;;;;;;11.77;2.75;;;18.00;99.90;;;;;;6020978;22;45131;-56
2023/10/04 11:06:04;;;;;;;17.33;3.33;;;18.20;99.90;;;;;;6038618;22;45123;-56
2023/10/04 11:09:38;;;;;;;7.30;2.63;;;18.30;99.90;;;;;;6042852;22;45162;-56
2023/10/04 11:12:21;;;;;;;9.82;2.55;;;18.10;99.90;;;;;;6020816;22;46637;-56
2023/10/04 11:15:17;;;;;;;15.35;3.50;;;18.10;99.90;;;;;;6045757;22;45369;-56
2023/10/04 11:17:54;;;;;;;12.07;3.25;;;18.00;99.90;;;;;;6023928;22;45003;-56
2023/10/04 11:20:39;;;;;;;12.50;2.97;;;17.60;99.90;;;;;;6016757;22;45155;-56
2023/10/04 11:23:16;;;;;;;13.93;3.47;;;17.80;99.90;;;;;;6024514;22;45445;-56
2023/10/04 11:29:21;;;;;;;12.95;2.92;;;17.90;99.90;;;;;;6004939;22;45272;-56
2023/10/04 11:31:48;;;;;;;22.45;3.60;;;17.70;99.90;;;;;;6027452;22;45050;-56
2023/10/04 11:34:15;;;;;;;10.20;2.92;;;17.60;99.90;;;;;;6024940;22;45993;-56
2023/10/04 11:37:03;;;;;;;13.85;3.33;;;17.70;99.90;;;;;;6022804;22;45154;-56
2023/10/04 11:39:51;;;;;;;8.48;2.78;;;17.50;99.90;;;;;;6038915;22;45197;-56
2023/10/04 11:42:24;;;;;;;11.40;3.50;;;17.40;99.90;;;;;;6021429;22;45084;-56
2023/10/04 11:45:02;;;;;;;11.68;2.95;;;17.40;99.90;;;;;;6033681;22;47222;-56
2023/10/04 11:48:05;;;;;;;11.38;2.58;;;17.50;99.90;;;;;;6032802;22;45512;-56
2023/10/04 11:50:44;;;;;;;11.27;3.00;;;17.90;99.90;;;;;;6004419;22;45059;-56
2023/10/04 11:57:07;;;;;;;10.45;3.08;;;17.80;99.90;;;;;;5999818;22;45418;-56
2023/10/04 12:00:33;;;;;;;13.77;2.92;;;17.80;99.90;;;;;;6038811;22;45323;-56
2023/10/04 12:03:09;;;;;;;11.65;3.28;;;17.90;99.90;;;;;;6053291;22;45549;-56
2023/10/04 12:05:37;;;;;;;12.02;3.40;;;18.00;99.90;;;;;;6037827;22;45225;-56
2023/10/04 12:08:06;;;;;;;8.40;3.28;;;17.80;99.90;;;;;;6031444;22;46410;-56
2023/10/04 12:10:33;;;;;;;11.38;3.13;;;18.10;99.90;;;;;;6025929;22;45570;-56
2023/10/04 12:13:13;;;;;;;10.57;3.55;;;18.40;99.90;;;;;;6072117;22;45531;-56
2023/10/04 12:15:42;;;;;;;7.90;3.20;;;18.20;99.90;;;;;;6015172;22;45450;-56
2023/10/04 12:18:16;;;;;;;14.50;4.13;;;17.80;99.90;;;;;;6013684;22;45763;-56
2023/10/04 12:20:57;;;;;;;11.60;3.42;;;17.80;99.90;;;;;;6015403;22;45194;-56
2023/10/04 12:23:40;;;;;;;12.70;3.60;;;17.70;99.90;;;;;;6042218;22;45142;-56
2023/10/04 12:26:07;;;;;;;11.45;3.83;;;18.00;99.90;;;;;;6011253;22;45628;-56
2023/10/04 12:29:32;;;;;;;11.45;3.20;;;18.10;99.90;;;;;;6042657;22;46908;-56
2023/10/04 12:32:19;;;;;;;13.82;4.00;;;18.30;98.90;;;;;;6040296;22;45220;-56
2023/10/04 12:34:54;;;;;;;10.80;3.05;;;18.20;99.10;;;;;;6031163;22;45117;-56
2023/10/04 12:37:22;;;;;;;14.15;3.58;;;18.40;99.90;;;;;;6033889;22;45244;-56
2023/10/04 12:39:50;;;;;;;11.38;3.80;;;18.20;99.60;;;;;;6036425;22;45261;-56
2023/10/04 12:42:20;;;;;;;11.82;3.67;;;18.30;98.40;;;;;;6028765;22;45390;-56
2023/10/04 12:45:15;;;;;;;12.85;3.63;;;18.30;99.70;;;;;;6039670;22;45169;-56
2023/10/04 12:48:02;;;;;;;10.32;3.47;;;18.20;97.70;;;;;;6024624;22;45022;-56
2023/10/04 12:50:45;;;;;;;12.23;3.95;;;18.10;99.40;;;;;;6043713;22;47020;-56
2023/10/04 12:53:33;;;;;;;9.20;3.63;;;17.80;99.90;;;;;;6057462;22;45259;-56
2023/10/04 12:56:03;;;;;;;11.98;3.80;;;17.90;99.90;;;;;;6019158;22;45264;-56
2023/10/04 12:58:43;;;;;;;12.10;3.70;;;18.20;99.90;;;;;;6024522;22;45457;-56
2023/10/04 13:01:10;;;;;;;10.57;3.78;;;18.20;99.90;;;;;;6043527;22;45401;-56
2023/10/04 13:03:38;;;;;;;12.85;3.72;;;17.90;99.10;;;;;;6039773;22;45464;-56
2023/10/04 13:08:47;;;;;;;11.30;3.65;;;18.00;98.40;;;;;;6006499;22;45324;-56
2023/10/04 13:11:17;;;;;;;10.95;4.00;;;17.80;98.10;;;;;;6035255;22;45210;-56
2023/10/04 13:13:46;;;;;;;13.05;3.72;;;17.80;99.30;;;;;;6035723;22;45437;-56
2023/10/04 13:16:46;;;;;;;14.68;3.70;;;17.80;99.10;;;;;;6018972;22;45318;-56
2023/10/04 13:22:10;;;;;;;13.02;3.85;;;18.30;99.90;;;;;;6047324;22;45169;-56
2023/10/04 13:24:38;;;;;;;14.48;3.20;;;18.70;98.60;;;;;;6020938;22;45453;-56
2023/10/04 13:27:27;;;;;;;10.18;3.90;;;18.10;99.90;;;;;;6051404;22;45265;-56
2023/10/04 13:30:16;;;;;;;13.75;3.75;;;18.40;99.90;;;;;;6078072;22;45262;-56
2023/10/04 13:32:56;;;;;;;11.80;3.50;;;18.40;99.90;;;;;;6045508;22;46148;-56
2023/10/04 13:35:45;;;;;;;14.75;3.38;;;18.40;99.90;;;;;;6048742;22;45164;-56
2023/10/04 13:38:40;;;;;;;9.90;3.95;;;18.10;99.60;;;;;;6025839;22;45244;-56
2023/10/04 13:41:36;;;;;;;10.93;3.17;;;18.30;99.90;;;;;;6018243;22;44803;-56
2023/10/04 13:44:04;;;;;;;11.32;3.55;;;18.60;99.90;;;;;;6034008;22;45406;-56
2023/10/04 13:46:38;;;;;;;7.88;2.90;;;18.40;99.30;;;;;;6025365;22;45019;-56
2023/10/04 13:49:22;;;;;;;10.60;3.55;;;18.50;99.90;;;;;;6024680;22;45048;-56
2023/10/04 13:51:49;;;;;;;13.63;3.50;;;18.50;99.90;;;;;;6032862;22;45101;-56
2023/10/04 13:54:19;;;;;;;12.68;3.63;;;18.40;99.30;;;;;;6052817;22;45542;-56
2023/10/04 13:56:53;;;;;;;12.27;3.85;;;18.30;99.50;;;;;;6016115;22;45244;-56
2023/10/04 13:59:22;;;;;;;15.27;3.67;;;17.90;99.60;;;;;;6023592;22;45029;-56
2023/10/04 14:01:53;;;;;;;10.35;3.28;;;17.90;99.90;;;;;;6033272;22;45020;-56
2023/10/04 14:04:50;;;;;;;10.50;3.47;;;17.90;99.50;;;;;;6040270;22;47384;-56
2023/10/04 14:07:39;;;;;;;8.50;3.28;;;17.80;99.90;;;;;;6040859;22;45763;-56
2023/10/04 14:10:22;;;;;;;12.25;2.97;;;17.90;99.90;;;;;;6039216;22;45244;-57
2023/10/04 14:13:17;;;;;;;14.07;3.85;;;18.20;99.10;;;;;;6071033;22;45421;-56
2023/10/04 14:15:55;;;;;;;9.98;2.78;;;18.30;99.90;;;;;;6038195;22;45704;-56
2023/10/04 14:18:47;;;;;;;10.07;2.88;;;18.20;99.80;;;;;;6019381;22;45313;-56
2023/10/04 14:21:14;;;;;;;12.57;3.28;;;18.10;99.90;;;;;;6031059;22;45296;-56
2023/10/04 14:24:02;;;;;;;13.00;3.60;;;18.40;99.70;;;;;;6057722;22;45262;-56
2023/10/04 14:26:53;;;;;;;14.18;3.13;;;18.40;99.90;;;;;;6025491;22;45874;-56
2023/10/04 14:29:43;;;;;;;12.30;2.97;;;18.60;99.90;;;;;;6049241;22;45333;-56
2023/10/04 14:32:22;;;;;;;10.10;3.20;;;18.60;99.90;;;;;;6010859;22;45201;-56
2023/10/04 14:35:08;;;;;;;11.93;3.47;;;18.90;99.90;;;;;;6049221;22;45391;-56
2023/10/04 14:37:47;;;;;;;10.82;2.78;;;19.00;99.80;;;;;;6022998;22;46288;-56
2023/10/04 14:44:43;;;;;;;10.10;3.67;;;18.30;99.40;;;;;;5996359;22;45361;-56
2023/10/04 14:47:28;;;;;;;7.78;2.70;;;18.00;99.90;;;;;;6025564;22;45311;-56
2023/10/04 14:50:13;;;;;;;12.10;2.50;;;18.50;99.90;;;;;;6023329;22;45708;-56
2023/10/04 14:52:54;;;;;;;11.20;2.63;;;18.80;99.90;;;;;;6024636;22;45121;-56
2023/10/04 14:55:26;;;;;;;8.98;3.08;;;18.70;99.90;;;;;;6025066;22;45643;-56
2023/10/04 14:58:08;;;;;;;9.52;2.92;;;18.80;99.90;;;;;;6019560;22;45882;-56
2023/10/04 15:01:05;;;;;;;9.80;3.13;;;18.90;99.90;;;;;;6030764;22;45747;-56
2023/10/04 15:03:41;;;;;;;9.65;3.30;;;18.90;99.90;;;;;;6033689;22;45398;-56
2023/10/04 15:06:38;;;;;;;7.95;2.50;;;19.10;99.90;;;;;;6043338;22;45263;-56
2023/10/04 15:09:14;;;;;;;9.98;2.85;;;19.30;99.90;;;;;;6027970;22;45417;-56
2023/10/04 15:11:53;;;;;;;9.82;2.88;;;19.20;99.20;;;;;;6033316;22;46227;-56
2023/10/04 15:14:20;;;;;;;7.22;2.30;;;19.10;99.90;;;;;;6009635;22;45276;-56
2023/10/04 15:17:07;;;;;;;9.45;3.28;;;19.00;99.90;;;;;;6030451;22;45298;-56
2023/10/04 15:19:36;;;;;;;11.63;2.60;;;19.10;99.90;;;;;;6029287;22;44724;-56
2023/10/04 15:22:14;;;;;;;9.07;2.60;;;19.20;99.80;;;;;;6040115;22;45654;-56
2023/10/04 15:25:03;;;;;;;14.15;3.13;;;19.30;99.90;;;;;;6022710;22;45290;-56
2023/10/04 15:27:47;;;;;;;9.80;2.88;;;19.30;98.90;;;;;;6023495;22;44699;-56
2023/10/04 15:30:22;;;;;;;16.17;2.95;;;18.90;98.30;;;;;;6037893;22;45438;-56
2023/10/04 15:32:51;;;;;;;7.47;2.65;;;18.80;99.80;;;;;;6045915;22;46395;-57
2023/10/04 15:35:36;;;;;;;11.63;3.03;;;18.50;99.90;;;;;;6021667;22;45101;-56
2023/10/04 15:38:33;;;;;;;11.43;3.42;;;18.50;99.90;;;;;;6065553;22;45402;-56